sensor_id;sensor_type;location;lat;lon;timestamp;temperature;humidity
72320;SHT30;60269;52.502;16.732;2022-11-20T00:02:56;-1.70;94.32
72320;SHT30;60269;52.502;16.732;2022-11-20T00:06:28;-1.71;94.75
72320;SHT30;60269;52.502;16.732;2022-11-20T00:10:00;-1.71;94.94
72320;SHT30;60269;52.502;16.732;2022-11-20T00:13:32;-1.75;95.24
72320;SHT30;60269;52.502;16.732;2022-11-20T00:17:04;-1.78;95.77
72320;SHT30;60269;52.502;16.732;2022-11-20T00:20:36;-1.81;96.14
72320;SHT30;60269;52.502;16.732;2022-11-20T00:24:08;-1.81;95.86
72320;SHT30;60269;52.502;16.732;2022-11-20T00:27:40;-1.81;95.85
72320;SHT30;60269;52.502;16.732;2022-11-20T00:31:14;-1.84;95.97
72320;SHT30;60269;52.502;16.732;2022-11-20T00:34:46;-1.84;96.00
72320;SHT30;60269;52.502;16.732;2022-11-20T00:38:18;-1.84;96.25
72320;SHT30;60269;52.502;16.732;2022-11-20T00:41:50;-1.85;96.52
72320;SHT30;60269;52.502;16.732;2022-11-20T00:45:22;-1.85;96.46
72320;SHT30;60269;52.502;16.732;2022-11-20T00:48:54;-1.85;96.67
72320;SHT30;60269;52.502;16.732;2022-11-20T00:52:26;-1.84;96.77
72320;SHT30;60269;52.502;16.732;2022-11-20T00:56:00;-1.84;96.73
72320;SHT30;60269;52.502;16.732;2022-11-20T00:59:32;-1.82;96.77
72320;SHT30;60269;52.502;16.732;2022-11-20T01:03:04;-1.82;96.63
72320;SHT30;60269;52.502;16.732;2022-11-20T01:06:38;-1.81;96.56
72320;SHT30;60269;52.502;16.732;2022-11-20T01:10:10;-1.84;96.81
72320;SHT30;60269;52.502;16.732;2022-11-20T01:13:44;-1.84;97.14
72320;SHT30;60269;52.502;16.732;2022-11-20T01:17:16;-1.82;97.09
72320;SHT30;60269;52.502;16.732;2022-11-20T01:20:49;-1.85;97.33
72320;SHT30;60269;52.502;16.732;2022-11-20T01:24:21;-1.84;97.34
72320;SHT30;60269;52.502;16.732;2022-11-20T01:27:54;-1.89;97.44
72320;SHT30;60269;52.502;16.732;2022-11-20T01:31:28;-1.88;97.54
72320;SHT30;60269;52.502;16.732;2022-11-20T01:35:00;-1.89;97.65
72320;SHT30;60269;52.502;16.732;2022-11-20T01:38:32;-1.88;97.70
72320;SHT30;60269;52.502;16.732;2022-11-20T01:42:04;-1.91;97.73
72320;SHT30;60269;52.502;16.732;2022-11-20T01:46:16;-1.89;97.62
72320;SHT30;60269;52.502;16.732;2022-11-20T01:49:52;-1.89;97.81
72320;SHT30;60269;52.502;16.732;2022-11-20T01:53:31;-1.89;97.72
72320;SHT30;60269;52.502;16.732;2022-11-20T01:57:05;-1.91;97.83
72320;SHT30;60269;52.502;16.732;2022-11-20T02:00:38;-1.88;97.71
72320;SHT30;60269;52.502;16.732;2022-11-20T02:04:13;-1.88;97.64
72320;SHT30;60269;52.502;16.732;2022-11-20T02:07:46;-1.91;97.64
72320;SHT30;60269;52.502;16.732;2022-11-20T02:11:18;-1.91;97.64
72320;SHT30;60269;52.502;16.732;2022-11-20T02:14:50;-1.91;97.67
72320;SHT30;60269;52.502;16.732;2022-11-20T02:18:23;-1.91;97.62
72320;SHT30;60269;52.502;16.732;2022-11-20T02:22:33;-1.94;97.61
72320;SHT30;60269;52.502;16.732;2022-11-20T02:25:57;-1.99;97.86
72320;SHT30;60269;52.502;16.732;2022-11-20T02:33:01;-1.98;97.99
72320;SHT30;60269;52.502;16.732;2022-11-20T02:36:34;-1.98;98.01
72320;SHT30;60269;52.502;16.732;2022-11-20T02:40:08;-1.99;97.90
72320;SHT30;60269;52.502;16.732;2022-11-20T02:43:40;-1.98;97.84
72320;SHT30;60269;52.502;16.732;2022-11-20T02:47:11;-1.99;97.79
72320;SHT30;60269;52.502;16.732;2022-11-20T02:50:43;-1.94;97.67
72320;SHT30;60269;52.502;16.732;2022-11-20T02:54:15;-1.92;97.34
72320;SHT30;60269;52.502;16.732;2022-11-20T02:57:47;-1.94;97.40
72320;SHT30;60269;52.502;16.732;2022-11-20T03:01:19;-1.88;97.26
72320;SHT30;60269;52.502;16.732;2022-11-20T03:04:51;-1.87;97.24
72320;SHT30;60269;52.502;16.732;2022-11-20T03:08:23;-1.82;97.25
72320;SHT30;60269;52.502;16.732;2022-11-20T03:11:54;-1.82;97.20
72320;SHT30;60269;52.502;16.732;2022-11-20T03:15:27;-1.77;97.14
72320;SHT30;60269;52.502;16.732;2022-11-20T03:18:59;-1.75;97.02
72320;SHT30;60269;52.502;16.732;2022-11-20T03:22:31;-1.68;97.08
72320;SHT30;60269;52.502;16.732;2022-11-20T03:26:17;-1.72;97.00
72320;SHT30;60269;52.502;16.732;2022-11-20T03:29:50;-1.64;96.98
72320;SHT30;60269;52.502;16.732;2022-11-20T03:33:22;-1.67;96.86
72320;SHT30;60269;52.502;16.732;2022-11-20T03:36:54;-1.66;96.94
72320;SHT30;60269;52.502;16.732;2022-11-20T03:40:25;-1.66;96.94
72320;SHT30;60269;52.502;16.732;2022-11-20T03:44:00;-1.64;96.89
72320;SHT30;60269;52.502;16.732;2022-11-20T03:47:32;-1.63;97.04
72320;SHT30;60269;52.502;16.732;2022-11-20T03:51:08;-1.63;97.06
72320;SHT30;60269;52.502;16.732;2022-11-20T03:54:40;-1.64;97.01
72320;SHT30;60269;52.502;16.732;2022-11-20T03:58:12;-1.61;97.07
72320;SHT30;60269;52.502;16.732;2022-11-20T04:01:44;-1.64;97.22
72320;SHT30;60269;52.502;16.732;2022-11-20T04:05:20;-1.60;97.14
72320;SHT30;60269;52.502;16.732;2022-11-20T04:08:54;-1.58;97.17
72320;SHT30;60269;52.502;16.732;2022-11-20T04:12:27;-1.63;97.26
72320;SHT30;60269;52.502;16.732;2022-11-20T04:15:58;-1.61;97.27
72320;SHT30;60269;52.502;16.732;2022-11-20T04:19:30;-1.60;97.34
72320;SHT30;60269;52.502;16.732;2022-11-20T04:23:02;-1.61;97.32
72320;SHT30;60269;52.502;16.732;2022-11-20T04:26:34;-1.58;97.31
72320;SHT30;60269;52.502;16.732;2022-11-20T04:30:06;-1.57;97.35
72320;SHT30;60269;52.502;16.732;2022-11-20T04:33:39;-1.54;97.13
72320;SHT30;60269;52.502;16.732;2022-11-20T04:37:11;-1.54;97.37
72320;SHT30;60269;52.502;16.732;2022-11-20T04:40:43;-1.56;97.30
72320;SHT30;60269;52.502;16.732;2022-11-20T04:44:14;-1.54;97.20
72320;SHT30;60269;52.502;16.732;2022-11-20T04:47:46;-1.56;97.35
72320;SHT30;60269;52.502;16.732;2022-11-20T04:51:18;-1.54;97.33
72320;SHT30;60269;52.502;16.732;2022-11-20T04:54:50;-1.53;97.24
72320;SHT30;60269;52.502;16.732;2022-11-20T04:58:24;-1.48;97.37
72320;SHT30;60269;52.502;16.732;2022-11-20T05:01:56;-1.48;97.42
72320;SHT30;60269;52.502;16.732;2022-11-20T05:05:28;-1.48;97.51
72320;SHT30;60269;52.502;16.732;2022-11-20T05:09:00;-1.51;97.56
72320;SHT30;60269;52.502;16.732;2022-11-20T05:12:34;-1.47;97.69
72320;SHT30;60269;52.502;16.732;2022-11-20T05:16:12;-1.47;97.74
72320;SHT30;60269;52.502;16.732;2022-11-20T05:19:44;-1.56;98.14
72320;SHT30;60269;52.502;16.732;2022-11-20T05:23:23;-1.48;97.87
72320;SHT30;60269;52.502;16.732;2022-11-20T05:26:55;-1.51;97.81
72320;SHT30;60269;52.502;16.732;2022-11-20T05:30:26;-1.53;97.61
72320;SHT30;60269;52.502;16.732;2022-11-20T05:33:58;-1.53;97.48
72320;SHT30;60269;52.502;16.732;2022-11-20T05:37:30;-1.53;97.43
72320;SHT30;60269;52.502;16.732;2022-11-20T05:41:04;-1.53;97.54
72320;SHT30;60269;52.502;16.732;2022-11-20T05:44:36;-1.53;97.35
72320;SHT30;60269;52.502;16.732;2022-11-20T05:48:08;-1.51;97.44
72320;SHT30;60269;52.502;16.732;2022-11-20T05:51:39;-1.53;97.47
72320;SHT30;60269;52.502;16.732;2022-11-20T05:55:11;-1.53;97.57
72320;SHT30;60269;52.502;16.732;2022-11-20T05:58:44;-1.56;97.52
72320;SHT30;60269;52.502;16.732;2022-11-20T06:02:16;-1.54;97.25
72320;SHT30;60269;52.502;16.732;2022-11-20T06:05:49;-1.57;97.45
72320;SHT30;60269;52.502;16.732;2022-11-20T06:09:21;-1.54;97.32
72320;SHT30;60269;52.502;16.732;2022-11-20T06:12:57;-1.54;97.41
72320;SHT30;60269;52.502;16.732;2022-11-20T06:16:29;-1.57;97.64
72320;SHT30;60269;52.502;16.732;2022-11-20T06:20:01;-1.60;97.96
72320;SHT30;60269;52.502;16.732;2022-11-20T06:23:34;-1.61;97.70
72320;SHT30;60269;52.502;16.732;2022-11-20T06:27:06;-1.64;97.54
72320;SHT30;60269;52.502;16.732;2022-11-20T06:30:44;-1.63;97.63
72320;SHT30;60269;52.502;16.732;2022-11-20T06:34:16;-1.68;97.02
72320;SHT30;60269;52.502;16.732;2022-11-20T06:37:48;-1.74;97.02
72320;SHT30;60269;52.502;16.732;2022-11-20T06:41:28;-1.77;96.67
72320;SHT30;60269;52.502;16.732;2022-11-20T06:45:06;-1.78;96.69
72320;SHT30;60269;52.502;16.732;2022-11-20T06:48:38;-1.79;96.31
72320;SHT30;60269;52.502;16.732;2022-11-20T06:52:10;-1.81;96.61
72320;SHT30;60269;52.502;16.732;2022-11-20T06:55:46;-1.78;96.72
72320;SHT30;60269;52.502;16.732;2022-11-20T06:59:36;-1.75;96.63
72320;SHT30;60269;52.502;16.732;2022-11-20T07:03:10;-1.74;96.14
72320;SHT30;60269;52.502;16.732;2022-11-20T07:06:42;-1.68;96.09
72320;SHT30;60269;52.502;16.732;2022-11-20T07:10:14;-1.70;94.17
72320;SHT30;60269;52.502;16.732;2022-11-20T07:13:46;-1.67;93.67
72320;SHT30;60269;52.502;16.732;2022-11-20T07:17:18;-1.72;92.80
72320;SHT30;60269;52.502;16.732;2022-11-20T07:20:52;-1.74;91.86
72320;SHT30;60269;52.502;16.732;2022-11-20T07:24:42;-1.75;91.02
72320;SHT30;60269;52.502;16.732;2022-11-20T07:28:19;-1.82;90.81
72320;SHT30;60269;52.502;16.732;2022-11-20T07:31:51;-1.84;90.49
72320;SHT30;60269;52.502;16.732;2022-11-20T07:35:24;-1.82;90.63
72320;SHT30;60269;52.502;16.732;2022-11-20T07:38:56;-1.81;90.15
72320;SHT30;60269;52.502;16.732;2022-11-20T07:42:28;-1.81;90.08
72320;SHT30;60269;52.502;16.732;2022-11-20T07:46:01;-1.82;90.87
72320;SHT30;60269;52.502;16.732;2022-11-20T07:49:32;-1.84;90.91
72320;SHT30;60269;52.502;16.732;2022-11-20T07:53:05;-1.82;90.66
72320;SHT30;60269;52.502;16.732;2022-11-20T07:56:36;-1.87;90.69
72320;SHT30;60269;52.502;16.732;2022-11-20T08:00:13;-1.84;90.59
72320;SHT30;60269;52.502;16.732;2022-11-20T08:03:45;-1.82;90.37
72320;SHT30;60269;52.502;16.732;2022-11-20T08:07:17;-1.72;89.92
72320;SHT30;60269;52.502;16.732;2022-11-20T08:10:49;-1.64;89.68
72320;SHT30;60269;52.502;16.732;2022-11-20T08:14:21;-1.60;89.49
72320;SHT30;60269;52.502;16.732;2022-11-20T08:18:02;-1.44;88.12
72320;SHT30;60269;52.502;16.732;2022-11-20T08:21:55;-1.35;88.23
72320;SHT30;60269;52.502;16.732;2022-11-20T08:25:28;-1.26;87.76
72320;SHT30;60269;52.502;16.732;2022-11-20T08:29:01;-1.13;87.06
72320;SHT30;60269;52.502;16.732;2022-11-20T08:32:33;-1.05;86.59
72320;SHT30;60269;52.502;16.732;2022-11-20T08:36:07;-0.85;86.00
72320;SHT30;60269;52.502;16.732;2022-11-20T08:39:39;-0.85;85.72
72320;SHT30;60269;52.502;16.732;2022-11-20T08:43:11;-0.84;85.54
72320;SHT30;60269;52.502;16.732;2022-11-20T08:46:42;-0.87;85.69
72320;SHT30;60269;52.502;16.732;2022-11-20T08:50:16;-0.64;85.52
72320;SHT30;60269;52.502;16.732;2022-11-20T08:53:48;-0.77;84.60
72320;SHT30;60269;52.502;16.732;2022-11-20T08:57:20;-0.79;85.56
72320;SHT30;60269;52.502;16.732;2022-11-20T09:00:52;-0.56;84.40
72320;SHT30;60269;52.502;16.732;2022-11-20T09:04:24;-0.40;84.12
72320;SHT30;60269;52.502;16.732;2022-11-20T09:07:57;-0.38;83.60
72320;SHT30;60269;52.502;16.732;2022-11-20T09:11:29;-0.34;83.81
72320;SHT30;60269;52.502;16.732;2022-11-20T09:15:01;-0.23;83.21
72320;SHT30;60269;52.502;16.732;2022-11-20T09:18:34;-0.09;83.27
72320;SHT30;60269;52.502;16.732;2022-11-20T09:22:08;-0.20;82.92
72320;SHT30;60269;52.502;16.732;2022-11-20T09:25:40;-0.16;83.27
72320;SHT30;60269;52.502;16.732;2022-11-20T09:29:12;-0.21;83.77
72320;SHT30;60269;52.502;16.732;2022-11-20T09:32:44;-0.24;83.93
72320;SHT30;60269;52.502;16.732;2022-11-20T09:36:16;-0.10;83.79
72320;SHT30;60269;52.502;16.732;2022-11-20T09:39:50;0.00;81.71
72320;SHT30;60269;52.502;16.732;2022-11-20T09:43:32;-0.05;82.49
72320;SHT30;60269;52.502;16.732;2022-11-20T09:47:52;0.05;82.01
72320;SHT30;60269;52.502;16.732;2022-11-20T09:51:46;0.00;82.06
72320;SHT30;60269;52.502;16.732;2022-11-20T09:55:21;-0.12;82.94
72320;SHT30;60269;52.502;16.732;2022-11-20T09:58:59;-0.06;83.05
72320;SHT30;60269;52.502;16.732;2022-11-20T10:03:02;0.00;82.40
72320;SHT30;60269;52.502;16.732;2022-11-20T10:06:41;-0.12;82.13
72320;SHT30;60269;52.502;16.732;2022-11-20T10:10:17;-0.17;82.38
72320;SHT30;60269;52.502;16.732;2022-11-20T10:14:04;-0.21;82.16
72320;SHT30;60269;52.502;16.732;2022-11-20T10:25:39;-0.12;82.36
72320;SHT30;60269;52.502;16.732;2022-11-20T10:29:18;0.04;82.06
72320;SHT30;60269;52.502;16.732;2022-11-20T10:33:21;0.15;82.50
72320;SHT30;60269;52.502;16.732;2022-11-20T10:37:00;0.19;81.51
72320;SHT30;60269;52.502;16.732;2022-11-20T10:40:39;0.44;79.83
72320;SHT30;60269;52.502;16.732;2022-11-20T10:44:14;0.58;79.71
72320;SHT30;60269;52.502;16.732;2022-11-20T10:55:35;1.28;78.01
72320;SHT30;60269;52.502;16.732;2022-11-20T11:03:00;0.86;77.76
72320;SHT30;60269;52.502;16.732;2022-11-20T11:06:38;0.66;79.38
72320;SHT30;60269;52.502;16.732;2022-11-20T11:10:26;0.44;80.87
72320;SHT30;60269;52.502;16.732;2022-11-20T11:14:10;0.35;81.64
72320;SHT30;60269;52.502;16.732;2022-11-20T11:17:47;0.11;80.74
72320;SHT30;60269;52.502;16.732;2022-11-20T11:21:25;0.05;81.52
72320;SHT30;60269;52.502;16.732;2022-11-20T11:24:58;0.12;81.10
72320;SHT30;60269;52.502;16.732;2022-11-20T11:28:31;0.08;80.85
72320;SHT30;60269;52.502;16.732;2022-11-20T11:32:08;0.01;80.83
72320;SHT30;60269;52.502;16.732;2022-11-20T11:35:48;0.14;82.04
72320;SHT30;60269;52.502;16.732;2022-11-20T11:39:23;0.12;81.30
72320;SHT30;60269;52.502;16.732;2022-11-20T11:42:58;0.09;81.42
72320;SHT30;60269;52.502;16.732;2022-11-20T11:46:34;0.15;81.01
72320;SHT30;60269;52.502;16.732;2022-11-20T11:50:26;0.29;80.98
72320;SHT30;60269;52.502;16.732;2022-11-20T11:53:58;0.38;80.75
72320;SHT30;60269;52.502;16.732;2022-11-20T11:57:43;0.41;80.18
72320;SHT30;60269;52.502;16.732;2022-11-20T12:05:22;0.79;79.45
72320;SHT30;60269;52.502;16.732;2022-11-20T12:09:08;0.84;78.83
72320;SHT30;60269;52.502;16.732;2022-11-20T12:12:44;1.09;77.94
72320;SHT30;60269;52.502;16.732;2022-11-20T12:16:19;1.20;76.73
72320;SHT30;60269;52.502;16.732;2022-11-20T12:19:51;1.05;78.18
72320;SHT30;60269;52.502;16.732;2022-11-20T12:23:48;0.91;77.59
72320;SHT30;60269;52.502;16.732;2022-11-20T12:27:32;0.70;78.39
72320;SHT30;60269;52.502;16.732;2022-11-20T12:31:19;0.65;77.90
72320;SHT30;60269;52.502;16.732;2022-11-20T12:38:48;0.44;78.86
72320;SHT30;60269;52.502;16.732;2022-11-20T12:47:05;0.18;80.09
72320;SHT30;60269;52.502;16.732;2022-11-20T12:51:09;0.14;79.39
72320;SHT30;60269;52.502;16.732;2022-11-20T12:54:54;0.12;80.71
72320;SHT30;60269;52.502;16.732;2022-11-20T12:58:43;0.02;79.67
72320;SHT30;60269;52.502;16.732;2022-11-20T13:06:14;0.07;80.79
72320;SHT30;60269;52.502;16.732;2022-11-20T13:09:49;-0.06;80.16
72320;SHT30;60269;52.502;16.732;2022-11-20T13:20:50;-0.19;80.53
72320;SHT30;60269;52.502;16.732;2022-11-20T13:24:28;-0.29;81.34
72320;SHT30;60269;52.502;16.732;2022-11-20T13:28:28;-0.36;80.38
72320;SHT30;60269;52.502;16.732;2022-11-20T13:32:21;-0.38;81.91
72320;SHT30;60269;52.502;16.732;2022-11-20T13:36:03;-0.40;82.06
72320;SHT30;60269;52.502;16.732;2022-11-20T13:39:36;-0.40;82.39
72320;SHT30;60269;52.502;16.732;2022-11-20T13:43:38;-0.45;81.77
72320;SHT30;60269;52.502;16.732;2022-11-20T13:47:23;-0.45;82.44
72320;SHT30;60269;52.502;16.732;2022-11-20T13:51:03;-0.42;81.52
72320;SHT30;60269;52.502;16.732;2022-11-20T13:58:48;-0.47;81.81
72320;SHT30;60269;52.502;16.732;2022-11-20T14:02:26;-0.48;83.09
72320;SHT30;60269;52.502;16.732;2022-11-20T14:06:02;-0.48;82.61
72320;SHT30;60269;52.502;16.732;2022-11-20T14:09:35;-0.48;82.59
72320;SHT30;60269;52.502;16.732;2022-11-20T14:13:17;-0.51;82.41
72320;SHT30;60269;52.502;16.732;2022-11-20T14:16:51;-0.50;82.24
72320;SHT30;60269;52.502;16.732;2022-11-20T14:20:26;-0.50;83.83
72320;SHT30;60269;52.502;16.732;2022-11-20T14:24:06;-0.56;82.73
72320;SHT30;60269;52.502;16.732;2022-11-20T14:27:40;-0.56;82.61
72320;SHT30;60269;52.502;16.732;2022-11-20T14:31:21;-0.60;82.82
72320;SHT30;60269;52.502;16.732;2022-11-20T14:34:54;-0.58;83.74
72320;SHT30;60269;52.502;16.732;2022-11-20T14:38:28;-0.58;83.54
72320;SHT30;60269;52.502;16.732;2022-11-20T14:42:00;-0.57;83.53
72320;SHT30;60269;52.502;16.732;2022-11-20T14:45:32;-0.64;83.53
72320;SHT30;60269;52.502;16.732;2022-11-20T14:49:05;-0.65;83.03
72320;SHT30;60269;52.502;16.732;2022-11-20T14:52:37;-0.64;83.78
72320;SHT30;60269;52.502;16.732;2022-11-20T14:56:08;-0.71;83.41
72320;SHT30;60269;52.502;16.732;2022-11-20T14:59:40;-0.71;82.92
72320;SHT30;60269;52.502;16.732;2022-11-20T15:03:15;-0.78;84.17
72320;SHT30;60269;52.502;16.732;2022-11-20T15:06:51;-0.84;83.77
72320;SHT30;60269;52.502;16.732;2022-11-20T15:10:25;-0.87;84.73
72320;SHT30;60269;52.502;16.732;2022-11-20T15:14:02;-0.79;84.60
72320;SHT30;60269;52.502;16.732;2022-11-20T15:17:37;-0.77;84.59
72320;SHT30;60269;52.502;16.732;2022-11-20T15:21:12;-0.79;85.23
72320;SHT30;60269;52.502;16.732;2022-11-20T15:24:45;-0.78;84.51
72320;SHT30;60269;52.502;16.732;2022-11-20T15:28:21;-0.78;85.15
72320;SHT30;60269;52.502;16.732;2022-11-20T15:31:54;-0.77;85.00
72320;SHT30;60269;52.502;16.732;2022-11-20T15:35:26;-0.78;85.16
72320;SHT30;60269;52.502;16.732;2022-11-20T15:38:58;-0.74;84.80
72320;SHT30;60269;52.502;16.732;2022-11-20T15:42:30;-0.78;85.00
72320;SHT30;60269;52.502;16.732;2022-11-20T15:46:09;-0.87;85.43
72320;SHT30;60269;52.502;16.732;2022-11-20T15:49:43;-0.87;85.69
72320;SHT30;60269;52.502;16.732;2022-11-20T15:53:15;-0.93;86.43
72320;SHT30;60269;52.502;16.732;2022-11-20T15:56:48;-1.05;87.27
72320;SHT30;60269;52.502;16.732;2022-11-20T16:00:20;-1.08;87.08
72320;SHT30;60269;52.502;16.732;2022-11-20T16:03:54;-1.09;87.56
72320;SHT30;60269;52.502;16.732;2022-11-20T16:07:26;-1.13;88.37
72320;SHT30;60269;52.502;16.732;2022-11-20T16:10:58;-1.16;87.94
72320;SHT30;60269;52.502;16.732;2022-11-20T16:14:30;-1.13;88.14
72320;SHT30;60269;52.502;16.732;2022-11-20T16:18:21;-1.16;88.04
72320;SHT30;60269;52.502;16.732;2022-11-20T16:21:53;-1.12;88.36
72320;SHT30;60269;52.502;16.732;2022-11-20T16:25:33;-0.98;87.46
72320;SHT30;60269;52.502;16.732;2022-11-20T16:29:06;-0.98;87.36
72320;SHT30;60269;52.502;16.732;2022-11-20T16:32:38;-0.96;87.05
72320;SHT30;60269;52.502;16.732;2022-11-20T16:36:14;-0.85;86.37
72320;SHT30;60269;52.502;16.732;2022-11-20T16:39:46;-0.87;86.66
72320;SHT30;60269;52.502;16.732;2022-11-20T16:43:18;-0.85;86.84
72320;SHT30;60269;52.502;16.732;2022-11-20T16:46:50;-0.84;86.46
72320;SHT30;60269;52.502;16.732;2022-11-20T16:50:22;-0.87;86.89
72320;SHT30;60269;52.502;16.732;2022-11-20T16:53:54;-0.87;86.18
72320;SHT30;60269;52.502;16.732;2022-11-20T16:57:30;-0.88;86.43
72320;SHT30;60269;52.502;16.732;2022-11-20T17:01:06;-0.84;86.13
72320;SHT30;60269;52.502;16.732;2022-11-20T17:04:37;-0.87;86.15
72320;SHT30;60269;52.502;16.732;2022-11-20T17:08:10;-0.88;86.03
72320;SHT30;60269;52.502;16.732;2022-11-20T17:11:42;-0.91;86.33
72320;SHT30;60269;52.502;16.732;2022-11-20T17:15:14;-0.98;87.11
72320;SHT30;60269;52.502;16.732;2022-11-20T17:18:46;-0.98;86.94
72320;SHT30;60269;52.502;16.732;2022-11-20T17:22:18;-1.03;87.10
72320;SHT30;60269;52.502;16.732;2022-11-20T17:25:50;-1.10;87.51
72320;SHT30;60269;52.502;16.732;2022-11-20T17:29:22;-1.12;87.61
72320;SHT30;60269;52.502;16.732;2022-11-20T17:32:54;-1.10;87.68
72320;SHT30;60269;52.502;16.732;2022-11-20T17:36:27;-1.10;87.85
72320;SHT30;60269;52.502;16.732;2022-11-20T17:40:00;-1.19;87.93
72320;SHT30;60269;52.502;16.732;2022-11-20T17:43:32;-1.21;87.39
72320;SHT30;60269;52.502;16.732;2022-11-20T17:47:07;-1.21;87.65
72320;SHT30;60269;52.502;16.732;2022-11-20T17:50:39;-1.15;87.62
72320;SHT30;60269;52.502;16.732;2022-11-20T17:54:11;-1.21;87.87
72320;SHT30;60269;52.502;16.732;2022-11-20T17:57:43;-1.13;87.47
72320;SHT30;60269;52.502;16.732;2022-11-20T18:01:23;-1.05;86.79
72320;SHT30;60269;52.502;16.732;2022-11-20T18:04:56;-1.02;86.48
72320;SHT30;60269;52.502;16.732;2022-11-20T18:08:27;-1.00;86.68
72320;SHT30;60269;52.502;16.732;2022-11-20T18:12:00;-1.00;86.95
72320;SHT30;60269;52.502;16.732;2022-11-20T18:15:32;-1.03;86.85
72320;SHT30;60269;52.502;16.732;2022-11-20T18:19:04;-0.96;85.90
72320;SHT30;60269;52.502;16.732;2022-11-20T18:22:36;-0.91;85.85
72320;SHT30;60269;52.502;16.732;2022-11-20T18:26:08;-0.85;85.35
72320;SHT30;60269;52.502;16.732;2022-11-20T18:29:40;-0.85;85.79
72320;SHT30;60269;52.502;16.732;2022-11-20T18:33:12;-0.88;86.05
72320;SHT30;60269;52.502;16.732;2022-11-20T18:36:44;-0.89;86.18
72320;SHT30;60269;52.502;16.732;2022-11-20T18:40:16;-0.89;86.20
72320;SHT30;60269;52.502;16.732;2022-11-20T18:43:48;-0.91;86.03
72320;SHT30;60269;52.502;16.732;2022-11-20T18:47:38;-0.91;86.14
72320;SHT30;60269;52.502;16.732;2022-11-20T18:51:11;-0.89;86.27
72320;SHT30;60269;52.502;16.732;2022-11-20T18:54:47;-0.92;86.76
72320;SHT30;60269;52.502;16.732;2022-11-20T18:58:19;-0.89;86.58
72320;SHT30;60269;52.502;16.732;2022-11-20T19:01:51;-0.87;86.81
72320;SHT30;60269;52.502;16.732;2022-11-20T19:05:23;-0.82;86.61
72320;SHT30;60269;52.502;16.732;2022-11-20T19:08:55;-0.78;86.15
72320;SHT30;60269;52.502;16.732;2022-11-20T19:12:27;-0.81;86.11
72320;SHT30;60269;52.502;16.732;2022-11-20T19:16:04;-0.88;86.57
72320;SHT30;60269;52.502;16.732;2022-11-20T19:19:36;-0.96;87.04
72320;SHT30;60269;52.502;16.732;2022-11-20T19:23:08;-0.99;86.90
72320;SHT30;60269;52.502;16.732;2022-11-20T19:26:40;-1.00;87.09
72320;SHT30;60269;52.502;16.732;2022-11-20T19:30:12;-0.99;87.05
72320;SHT30;60269;52.502;16.732;2022-11-20T19:33:45;-0.92;86.55
72320;SHT30;60269;52.502;16.732;2022-11-20T19:37:17;-0.85;86.16
72320;SHT30;60269;52.502;16.732;2022-11-20T19:40:49;-0.81;86.43
72320;SHT30;60269;52.502;16.732;2022-11-20T19:44:22;-0.75;86.32
72320;SHT30;60269;52.502;16.732;2022-11-20T19:47:54;-0.75;85.94
72320;SHT30;60269;52.502;16.732;2022-11-20T19:51:46;-0.81;85.92
72320;SHT30;60269;52.502;16.732;2022-11-20T19:55:18;-0.84;86.21
72320;SHT30;60269;52.502;16.732;2022-11-20T19:58:55;-0.89;86.46
72320;SHT30;60269;52.502;16.732;2022-11-20T20:02:29;-0.91;86.20
72320;SHT30;60269;52.502;16.732;2022-11-20T20:06:04;-0.88;86.60
72320;SHT30;60269;52.502;16.732;2022-11-20T20:09:36;-0.93;86.96
72320;SHT30;60269;52.502;16.732;2022-11-20T20:13:09;-0.95;86.88
72320;SHT30;60269;52.502;16.732;2022-11-20T20:16:41;-0.99;87.23
72320;SHT30;60269;52.502;16.732;2022-11-20T20:20:13;-1.08;87.62
72320;SHT30;60269;52.502;16.732;2022-11-20T20:23:49;-1.17;87.97
72320;SHT30;60269;52.502;16.732;2022-11-20T20:27:22;-1.37;88.42
72320;SHT30;60269;52.502;16.732;2022-11-20T20:30:55;-1.56;88.92
72320;SHT30;60269;52.502;16.732;2022-11-20T20:34:27;-1.72;89.31
72320;SHT30;60269;52.502;16.732;2022-11-20T20:38:02;-1.99;90.17
72320;SHT30;60269;52.502;16.732;2022-11-20T20:41:34;-2.32;91.32
72320;SHT30;60269;52.502;16.732;2022-11-20T20:45:07;-2.50;92.23
72320;SHT30;60269;52.502;16.732;2022-11-20T20:48:39;-2.67;92.02
72320;SHT30;60269;52.502;16.732;2022-11-20T20:52:12;-2.58;91.91
72320;SHT30;60269;52.502;16.732;2022-11-20T20:55:59;-2.83;92.20
72320;SHT30;60269;52.502;16.732;2022-11-20T20:59:34;-2.84;92.20
72320;SHT30;60269;52.502;16.732;2022-11-20T21:03:07;-3.05;92.75
72320;SHT30;60269;52.502;16.732;2022-11-20T21:06:39;-3.19;93.23
72320;SHT30;60269;52.502;16.732;2022-11-20T21:10:11;-3.12;93.34
72320;SHT30;60269;52.502;16.732;2022-11-20T21:13:47;-3.22;92.83
72320;SHT30;60269;52.502;16.732;2022-11-20T21:17:19;-3.16;92.47
72320;SHT30;60269;52.502;16.732;2022-11-20T21:20:51;-3.32;92.77
72320;SHT30;60269;52.502;16.732;2022-11-20T21:24:42;-3.16;91.94
72320;SHT30;60269;52.502;16.732;2022-11-20T21:28:14;-3.38;92.60
72320;SHT30;60269;52.502;16.732;2022-11-20T21:31:49;-3.42;93.17
72320;SHT30;60269;52.502;16.732;2022-11-20T21:35:21;-3.46;93.06
72320;SHT30;60269;52.502;16.732;2022-11-20T21:38:54;-3.43;92.85
72320;SHT30;60269;52.502;16.732;2022-11-20T21:42:26;-3.43;93.16
72320;SHT30;60269;52.502;16.732;2022-11-20T21:46:06;-3.59;93.05
72320;SHT30;60269;52.502;16.732;2022-11-20T21:49:38;-3.56;93.53
72320;SHT30;60269;52.502;16.732;2022-11-20T21:53:10;-3.47;93.16
72320;SHT30;60269;52.502;16.732;2022-11-20T21:56:42;-3.66;93.29
72320;SHT30;60269;52.502;16.732;2022-11-20T22:00:14;-3.75;94.19
72320;SHT30;60269;52.502;16.732;2022-11-20T22:03:47;-3.78;94.29
72320;SHT30;60269;52.502;16.732;2022-11-20T22:07:22;-3.81;94.34
72320;SHT30;60269;52.502;16.732;2022-11-20T22:10:59;-3.93;94.29
72320;SHT30;60269;52.502;16.732;2022-11-20T22:14:31;-4.08;95.11
72320;SHT30;60269;52.502;16.732;2022-11-20T22:18:03;-4.11;95.74
72320;SHT30;60269;52.502;16.732;2022-11-20T22:21:44;-4.16;95.55
72320;SHT30;60269;52.502;16.732;2022-11-20T22:25:16;-4.26;95.61
72320;SHT30;60269;52.502;16.732;2022-11-20T22:28:49;-4.28;95.88
72320;SHT30;60269;52.502;16.732;2022-11-20T22:32:21;-4.14;95.37
72320;SHT30;60269;52.502;16.732;2022-11-20T22:36:06;-4.23;95.24
72320;SHT30;60269;52.502;16.732;2022-11-20T22:39:37;-4.39;96.10
72320;SHT30;60269;52.502;16.732;2022-11-20T22:43:09;-4.48;96.76
72320;SHT30;60269;52.502;16.732;2022-11-20T22:46:41;-4.37;95.96
72320;SHT30;60269;52.502;16.732;2022-11-20T22:50:13;-4.29;95.39
72320;SHT30;60269;52.502;16.732;2022-11-20T22:53:45;-4.45;95.68
72320;SHT30;60269;52.502;16.732;2022-11-20T22:57:17;-4.59;96.18
72320;SHT30;60269;52.502;16.732;2022-11-20T23:00:49;-4.53;96.41
72320;SHT30;60269;52.502;16.732;2022-11-20T23:04:21;-4.52;96.15
72320;SHT30;60269;52.502;16.732;2022-11-20T23:07:53;-4.66;96.76
72320;SHT30;60269;52.502;16.732;2022-11-20T23:11:27;-4.57;96.73